Riviera Beach, FL (33404)

1:21 AM EDT on July 25, 2016 (GMT -0400)
Gardenia Gardens | | Change Station

Elev 7 ft 26.82 °N, 80.10 °W | Updated 6 minutes ago

Scattered Clouds
Scattered Clouds
75.4 °F
Feels Like 76 °F
N
0.0
Wind Variable Wind from South

Today
High -- | Low -- °F
--% Chance of Precip.
Yesterday
High -- | Low -- °F
Precip. -- in
Pressure 30.08 in
Visibility 10.0 miles
Clouds Few 12000 ft
Scattered Clouds 25000 ft
Heat Index 76 °F
Dew Point 70 °F
Humidity 83%
Rainfall 0.00 in
Snow Depth Not available.
6:41 AM 8:11 PM
Waning Gibbous, 69% visible
METAR KPBI 250453Z 30003KT 10SM FEW120 SCT250 26/22 A3008 RMK AO2 SLP185 T02560217 403060239
Pressure 30.08 in
Visibility 10.0 miles
Clouds Few 12000 ft
Scattered Clouds 25000 ft
Heat Index 76 °F
Dew Point 70 °F
Humidity 83%
Rainfall 0.00 in
Snow Depth Not available.
6:41 AM 8:11 PM
Waning Gibbous, 69% visible
METAR KPBI 250453Z 30003KT 10SM FEW120 SCT250 26/22 A3008 RMK AO2 SLP185 T02560217 403060239

10-Day Weather Forecast

Almanac

Astronomy

Jul. 25, 2016 Rise Set
Actual Time
Civil Twilight
Nautical Twilight
Astronomical Twilight
Moon
Length of Visible Light
Length of Day
Tomorrow will be .
, % of the Moon is Illuminated

Today's Extremes

State Highs State Lows

Community

WunderPhotos

Upload Photos

1,927,273 photos uploaded!

WunderBlog® & News

Nearby

Air Quality

  Air Quality AQ Index Pollutant
Not available.

Snow Depth

Station Depth Elevation

Earthquake Activity

City Distance Mag. Time & Date
Minimum magnitude displayed is 2.5.

Coastal Water Temperatures

Place Temperature

Stations

Nearby Weather Stations

Station Location Temp. Windchill Dew Point Humidity Wind Precip. Elev Updated Type
                   

Watches & Warnings

There are currently no watches in effect.